sensor_id;sensor_type;location;lat;lon;timestamp;pressure;altitude;pressure_sealevel;temperature;humidity
11327;BME280;5718;42.138;24.762;2023-07-02T00:01:46;98773.78;;;21.65;100.00
11327;BME280;5718;42.138;24.762;2023-07-02T00:04:14;98773.03;;;21.63;100.00
11327;BME280;5718;42.138;24.762;2023-07-02T00:06:43;98758.22;;;21.45;100.00
11327;BME280;5718;42.138;24.762;2023-07-02T00:09:10;98769.47;;;21.48;100.00
11327;BME280;5718;42.138;24.762;2023-07-02T00:11:37;98773.91;;;21.48;100.00
11327;BME280;5718;42.138;24.762;2023-07-02T00:14:04;98770.72;;;21.57;100.00
11327;BME280;5718;42.138;24.762;2023-07-02T00:16:30;98778.03;;;21.68;100.00
11327;BME280;5718;42.138;24.762;2023-07-02T00:18:58;98764.09;;;21.50;100.00
11327;BME280;5718;42.138;24.762;2023-07-02T00:21:25;98756.00;;;21.37;100.00
11327;BME280;5718;42.138;24.762;2023-07-02T00:23:55;98774.75;;;21.33;100.00
11327;BME280;5718;42.138;24.762;2023-07-02T00:26:23;98776.97;;;21.56;100.00
11327;BME280;5718;42.138;24.762;2023-07-02T00:28:50;98773.56;;;21.54;100.00
11327;BME280;5718;42.138;24.762;2023-07-02T00:31:17;98772.69;;;21.69;100.00
11327;BME280;5718;42.138;24.762;2023-07-02T00:33:44;98775.94;;;21.43;100.00
11327;BME280;5718;42.138;24.762;2023-07-02T00:36:11;98771.50;;;21.59;100.00
11327;BME280;5718;42.138;24.762;2023-07-02T00:38:40;98787.00;;;21.65;100.00
11327;BME280;5718;42.138;24.762;2023-07-02T00:41:09;98780.03;;;21.48;100.00
11327;BME280;5718;42.138;24.762;2023-07-02T00:43:36;98782.44;;;21.37;100.00
11327;BME280;5718;42.138;24.762;2023-07-02T00:46:05;98772.53;;;21.56;100.00
11327;BME280;5718;42.138;24.762;2023-07-02T00:48:32;98773.44;;;21.24;100.00
11327;BME280;5718;42.138;24.762;2023-07-02T00:51:00;98772.38;;;21.28;100.00
11327;BME280;5718;42.138;24.762;2023-07-02T00:53:26;98773.75;;;21.35;100.00
11327;BME280;5718;42.138;24.762;2023-07-02T00:55:53;98770.50;;;21.46;100.00
11327;BME280;5718;42.138;24.762;2023-07-02T00:58:21;98768.38;;;21.37;100.00
11327;BME280;5718;42.138;24.762;2023-07-02T01:00:48;98753.19;;;21.40;100.00
11327;BME280;5718;42.138;24.762;2023-07-02T01:03:15;98755.16;;;21.37;100.00
11327;BME280;5718;42.138;24.762;2023-07-02T01:05:42;98757.63;;;21.55;100.00
11327;BME280;5718;42.138;24.762;2023-07-02T01:08:08;98761.44;;;21.50;100.00
11327;BME280;5718;42.138;24.762;2023-07-02T01:10:36;98764.03;;;21.36;100.00
11327;BME280;5718;42.138;24.762;2023-07-02T01:13:07;98757.94;;;21.49;100.00
11327;BME280;5718;42.138;24.762;2023-07-02T01:15:37;98756.75;;;21.23;100.00
11327;BME280;5718;42.138;24.762;2023-07-02T01:18:05;98757.44;;;21.43;100.00
11327;BME280;5718;42.138;24.762;2023-07-02T01:20:34;98757.53;;;21.57;100.00
11327;BME280;5718;42.138;24.762;2023-07-02T01:23:03;98756.34;;;21.31;100.00
11327;BME280;5718;42.138;24.762;2023-07-02T01:25:30;98755.88;;;21.23;100.00
11327;BME280;5718;42.138;24.762;2023-07-02T01:27:57;98756.16;;;21.34;100.00
11327;BME280;5718;42.138;24.762;2023-07-02T01:30:24;98745.09;;;21.43;100.00
11327;BME280;5718;42.138;24.762;2023-07-02T01:32:51;98753.84;;;21.59;100.00
11327;BME280;5718;42.138;24.762;2023-07-02T01:35:18;98759.09;;;21.75;100.00
11327;BME280;5718;42.138;24.762;2023-07-02T01:37:46;98761.00;;;21.73;100.00
11327;BME280;5718;42.138;24.762;2023-07-02T01:40:13;98760.44;;;21.68;100.00
11327;BME280;5718;42.138;24.762;2023-07-02T01:42:40;98743.66;;;21.38;100.00
11327;BME280;5718;42.138;24.762;2023-07-02T01:45:08;98742.38;;;21.45;100.00
11327;BME280;5718;42.138;24.762;2023-07-02T01:47:34;98733.91;;;21.22;100.00
11327;BME280;5718;42.138;24.762;2023-07-02T01:50:03;98736.34;;;21.10;100.00
11327;BME280;5718;42.138;24.762;2023-07-02T01:52:31;98738.69;;;21.47;100.00
11327;BME280;5718;42.138;24.762;2023-07-02T01:55:01;98754.63;;;21.62;100.00
11327;BME280;5718;42.138;24.762;2023-07-02T01:57:28;98745.44;;;21.53;100.00
11327;BME280;5718;42.138;24.762;2023-07-02T01:59:56;98733.81;;;21.55;100.00
11327;BME280;5718;42.138;24.762;2023-07-02T02:02:23;98729.41;;;21.56;100.00
11327;BME280;5718;42.138;24.762;2023-07-02T02:04:50;98725.81;;;21.41;100.00
11327;BME280;5718;42.138;24.762;2023-07-02T02:07:16;98732.47;;;21.33;100.00
11327;BME280;5718;42.138;24.762;2023-07-02T02:09:43;98730.56;;;20.87;100.00
11327;BME280;5718;42.138;24.762;2023-07-02T02:12:11;98732.69;;;20.81;100.00
11327;BME280;5718;42.138;24.762;2023-07-02T02:14:39;98722.69;;;21.19;100.00
11327;BME280;5718;42.138;24.762;2023-07-02T02:17:06;98728.31;;;21.28;100.00
11327;BME280;5718;42.138;24.762;2023-07-02T02:19:33;98723.75;;;21.15;100.00
11327;BME280;5718;42.138;24.762;2023-07-02T02:22:00;98722.91;;;21.14;100.00
11327;BME280;5718;42.138;24.762;2023-07-02T02:24:26;98726.16;;;21.19;100.00
11327;BME280;5718;42.138;24.762;2023-07-02T02:26:53;98717.22;;;21.06;100.00
11327;BME280;5718;42.138;24.762;2023-07-02T02:29:21;98717.31;;;21.20;100.00
11327;BME280;5718;42.138;24.762;2023-07-02T02:31:48;98721.63;;;21.21;100.00
11327;BME280;5718;42.138;24.762;2023-07-02T02:34:14;98726.72;;;20.93;100.00
11327;BME280;5718;42.138;24.762;2023-07-02T02:36:41;98737.38;;;20.91;100.00
11327;BME280;5718;42.138;24.762;2023-07-02T02:39:08;98747.94;;;21.07;100.00
11327;BME280;5718;42.138;24.762;2023-07-02T02:41:35;98746.06;;;21.09;100.00
11327;BME280;5718;42.138;24.762;2023-07-02T02:44:01;98747.94;;;20.91;100.00
11327;BME280;5718;42.138;24.762;2023-07-02T02:46:31;98749.06;;;21.03;100.00
11327;BME280;5718;42.138;24.762;2023-07-02T02:48:57;98750.50;;;21.24;100.00
11327;BME280;5718;42.138;24.762;2023-07-02T02:51:24;98748.97;;;21.04;100.00
11327;BME280;5718;42.138;24.762;2023-07-02T02:53:51;98743.53;;;21.08;100.00
11327;BME280;5718;42.138;24.762;2023-07-02T02:56:17;98756.63;;;21.09;100.00
11327;BME280;5718;42.138;24.762;2023-07-02T02:58:44;98758.38;;;21.10;100.00
11327;BME280;5718;42.138;24.762;2023-07-02T03:01:11;98775.97;;;21.27;100.00
11327;BME280;5718;42.138;24.762;2023-07-02T03:03:40;98775.03;;;21.28;100.00
11327;BME280;5718;42.138;24.762;2023-07-02T03:06:11;98789.69;;;21.16;100.00
11327;BME280;5718;42.138;24.762;2023-07-02T03:08:39;98782.84;;;21.29;100.00
11327;BME280;5718;42.138;24.762;2023-07-02T03:11:06;98787.69;;;21.21;100.00
11327;BME280;5718;42.138;24.762;2023-07-02T03:13:32;98779.47;;;21.26;100.00
11327;BME280;5718;42.138;24.762;2023-07-02T03:15:59;98785.50;;;21.29;100.00
11327;BME280;5718;42.138;24.762;2023-07-02T03:18:26;98790.31;;;21.21;100.00
11327;BME280;5718;42.138;24.762;2023-07-02T03:20:54;98796.88;;;21.14;100.00
11327;BME280;5718;42.138;24.762;2023-07-02T03:23:21;98794.91;;;21.02;100.00
11327;BME280;5718;42.138;24.762;2023-07-02T03:25:47;98798.34;;;20.87;100.00
11327;BME280;5718;42.138;24.762;2023-07-02T03:28:14;98813.56;;;20.82;100.00
11327;BME280;5718;42.138;24.762;2023-07-02T03:30:41;98813.56;;;20.82;100.00
11327;BME280;5718;42.138;24.762;2023-07-02T03:33:08;98810.75;;;20.85;100.00
11327;BME280;5718;42.138;24.762;2023-07-02T03:35:35;98820.47;;;20.84;100.00
11327;BME280;5718;42.138;24.762;2023-07-02T03:38:04;98824.84;;;20.68;100.00
11327;BME280;5718;42.138;24.762;2023-07-02T03:40:30;98820.56;;;20.83;100.00
11327;BME280;5718;42.138;24.762;2023-07-02T03:42:57;98820.72;;;20.80;100.00
11327;BME280;5718;42.138;24.762;2023-07-02T03:45:24;98814.75;;;20.76;100.00
11327;BME280;5718;42.138;24.762;2023-07-02T03:47:50;98811.59;;;20.69;100.00
11327;BME280;5718;42.138;24.762;2023-07-02T03:50:18;98808.38;;;20.80;100.00
11327;BME280;5718;42.138;24.762;2023-07-02T03:52:44;98815.91;;;20.88;100.00
11327;BME280;5718;42.138;24.762;2023-07-02T03:55:12;98815.00;;;20.71;100.00
11327;BME280;5718;42.138;24.762;2023-07-02T03:57:39;98816.41;;;20.61;100.00
11327;BME280;5718;42.138;24.762;2023-07-02T04:00:07;98813.84;;;20.77;100.00
11327;BME280;5718;42.138;24.762;2023-07-02T04:02:35;98808.63;;;20.58;100.00
11327;BME280;5718;42.138;24.762;2023-07-02T04:05:01;98811.66;;;20.51;100.00
11327;BME280;5718;42.138;24.762;2023-07-02T04:07:28;98820.28;;;20.71;100.00
11327;BME280;5718;42.138;24.762;2023-07-02T04:09:55;98810.44;;;20.58;100.00
11327;BME280;5718;42.138;24.762;2023-07-02T04:12:23;98815.56;;;20.43;100.00
11327;BME280;5718;42.138;24.762;2023-07-02T04:14:50;98819.25;;;20.39;100.00
11327;BME280;5718;42.138;24.762;2023-07-02T04:17:17;98812.00;;;20.44;100.00
11327;BME280;5718;42.138;24.762;2023-07-02T04:19:43;98808.16;;;20.33;100.00
11327;BME280;5718;42.138;24.762;2023-07-02T04:22:10;98812.28;;;20.38;100.00
11327;BME280;5718;42.138;24.762;2023-07-02T04:24:37;98816.63;;;20.22;100.00
11327;BME280;5718;42.138;24.762;2023-07-02T04:27:04;98819.84;;;20.46;100.00
11327;BME280;5718;42.138;24.762;2023-07-02T04:29:32;98825.50;;;20.56;100.00
11327;BME280;5718;42.138;24.762;2023-07-02T04:31:59;98822.91;;;20.71;100.00
11327;BME280;5718;42.138;24.762;2023-07-02T04:34:28;98831.03;;;20.84;100.00
11327;BME280;5718;42.138;24.762;2023-07-02T04:36:55;98834.06;;;21.10;100.00
11327;BME280;5718;42.138;24.762;2023-07-02T04:39:22;98832.41;;;20.91;100.00
11327;BME280;5718;42.138;24.762;2023-07-02T04:41:48;98819.88;;;21.12;100.00
11327;BME280;5718;42.138;24.762;2023-07-02T04:44:18;98825.22;;;21.44;100.00
11327;BME280;5718;42.138;24.762;2023-07-02T04:46:49;98826.94;;;21.45;100.00
11327;BME280;5718;42.138;24.762;2023-07-02T04:49:16;98825.56;;;21.38;100.00
11327;BME280;5718;42.138;24.762;2023-07-02T04:51:43;98847.03;;;21.63;100.00
11327;BME280;5718;42.138;24.762;2023-07-02T04:54:10;98858.97;;;21.86;100.00
11327;BME280;5718;42.138;24.762;2023-07-02T04:56:40;98857.97;;;21.73;100.00
11327;BME280;5718;42.138;24.762;2023-07-02T04:59:07;98857.25;;;22.01;100.00
11327;BME280;5718;42.138;24.762;2023-07-02T05:01:34;98855.13;;;21.76;100.00
11327;BME280;5718;42.138;24.762;2023-07-02T05:04:02;98862.91;;;21.95;100.00
11327;BME280;5718;42.138;24.762;2023-07-02T05:06:29;98859.47;;;21.93;100.00
11327;BME280;5718;42.138;24.762;2023-07-02T05:08:55;98857.78;;;21.76;100.00
11327;BME280;5718;42.138;24.762;2023-07-02T05:11:22;98863.66;;;21.97;100.00
11327;BME280;5718;42.138;24.762;2023-07-02T05:13:49;98861.53;;;22.03;100.00
11327;BME280;5718;42.138;24.762;2023-07-02T05:16:16;98863.25;;;21.73;100.00
11327;BME280;5718;42.138;24.762;2023-07-02T05:18:43;98871.44;;;21.68;100.00
11327;BME280;5718;42.138;24.762;2023-07-02T05:21:11;98871.25;;;21.71;100.00
11327;BME280;5718;42.138;24.762;2023-07-02T05:23:38;98873.81;;;21.24;100.00
11327;BME280;5718;42.138;24.762;2023-07-02T05:26:05;98880.22;;;21.20;100.00
11327;BME280;5718;42.138;24.762;2023-07-02T05:28:31;98880.81;;;21.25;100.00
11327;BME280;5718;42.138;24.762;2023-07-02T05:30:58;98896.06;;;21.53;100.00
11327;BME280;5718;42.138;24.762;2023-07-02T05:33:25;98896.06;;;21.53;100.00
11327;BME280;5718;42.138;24.762;2023-07-02T05:35:51;98898.44;;;21.57;100.00
11327;BME280;5718;42.138;24.762;2023-07-02T05:38:19;98898.47;;;21.73;100.00
11327;BME280;5718;42.138;24.762;2023-07-02T05:40:46;98899.75;;;21.98;100.00
11327;BME280;5718;42.138;24.762;2023-07-02T05:43:13;98907.22;;;21.58;100.00
11327;BME280;5718;42.138;24.762;2023-07-02T05:45:40;98908.38;;;21.70;100.00
11327;BME280;5718;42.138;24.762;2023-07-02T05:48:06;98911.00;;;21.70;100.00
11327;BME280;5718;42.138;24.762;2023-07-02T05:50:33;98907.59;;;21.52;100.00
11327;BME280;5718;42.138;24.762;2023-07-02T05:53:00;98904.31;;;21.47;100.00
11327;BME280;5718;42.138;24.762;2023-07-02T05:55:28;98896.22;;;21.66;100.00
11327;BME280;5718;42.138;24.762;2023-07-02T05:57:55;98894.28;;;21.69;100.00
11327;BME280;5718;42.138;24.762;2023-07-02T06:00:26;98889.50;;;21.76;100.00
11327;BME280;5718;42.138;24.762;2023-07-02T06:02:53;98883.69;;;22.01;100.00
11327;BME280;5718;42.138;24.762;2023-07-02T06:05:20;98899.91;;;21.79;100.00
11327;BME280;5718;42.138;24.762;2023-07-02T06:07:46;98908.94;;;21.43;100.00
11327;BME280;5718;42.138;24.762;2023-07-02T06:10:13;98916.59;;;21.48;100.00
11327;BME280;5718;42.138;24.762;2023-07-02T06:12:41;98904.47;;;21.26;100.00
11327;BME280;5718;42.138;24.762;2023-07-02T06:15:09;98897.56;;;21.41;100.00
11327;BME280;5718;42.138;24.762;2023-07-02T06:17:36;98886.16;;;21.56;100.00
11327;BME280;5718;42.138;24.762;2023-07-02T06:20:02;98887.78;;;21.75;100.00
11327;BME280;5718;42.138;24.762;2023-07-02T06:22:31;98894.13;;;22.04;100.00
11327;BME280;5718;42.138;24.762;2023-07-02T06:24:58;98893.94;;;22.23;100.00
11327;BME280;5718;42.138;24.762;2023-07-02T06:27:24;98894.56;;;22.42;100.00
11327;BME280;5718;42.138;24.762;2023-07-02T06:29:52;98889.56;;;22.67;100.00
11327;BME280;5718;42.138;24.762;2023-07-02T06:32:19;98891.75;;;22.75;100.00
11327;BME280;5718;42.138;24.762;2023-07-02T06:34:46;98880.38;;;22.89;100.00
11327;BME280;5718;42.138;24.762;2023-07-02T06:37:12;98885.09;;;22.54;100.00
11327;BME280;5718;42.138;24.762;2023-07-02T06:39:39;98881.41;;;22.26;100.00
11327;BME280;5718;42.138;24.762;2023-07-02T06:42:06;98877.19;;;22.82;100.00
11327;BME280;5718;42.138;24.762;2023-07-02T06:44:33;98880.50;;;22.11;100.00
11327;BME280;5718;42.138;24.762;2023-07-02T06:47:01;98887.53;;;22.42;100.00
11327;BME280;5718;42.138;24.762;2023-07-02T06:49:27;98896.00;;;22.93;100.00
11327;BME280;5718;42.138;24.762;2023-07-02T06:51:54;98881.88;;;22.63;100.00
11327;BME280;5718;42.138;24.762;2023-07-02T06:54:21;98885.19;;;22.96;100.00
11327;BME280;5718;42.138;24.762;2023-07-02T06:56:47;98876.69;;;23.48;100.00
11327;BME280;5718;42.138;24.762;2023-07-02T06:59:18;98873.41;;;24.00;100.00
11327;BME280;5718;42.138;24.762;2023-07-02T07:01:45;98883.88;;;24.43;100.00
11327;BME280;5718;42.138;24.762;2023-07-02T07:04:13;98887.72;;;24.52;100.00
11327;BME280;5718;42.138;24.762;2023-07-02T07:06:41;98883.16;;;24.27;100.00
11327;BME280;5718;42.138;24.762;2023-07-02T07:09:08;98880.91;;;24.48;100.00
11327;BME280;5718;42.138;24.762;2023-07-02T07:11:35;98860.78;;;24.04;100.00
11327;BME280;5718;42.138;24.762;2023-07-02T07:14:01;98861.13;;;24.12;100.00
11327;BME280;5718;42.138;24.762;2023-07-02T07:16:28;98860.72;;;24.18;100.00
11327;BME280;5718;42.138;24.762;2023-07-02T07:18:55;98866.06;;;24.31;100.00
11327;BME280;5718;42.138;24.762;2023-07-02T07:21:23;98866.19;;;23.75;100.00
11327;BME280;5718;42.138;24.762;2023-07-02T07:23:50;98865.75;;;24.62;100.00
11327;BME280;5718;42.138;24.762;2023-07-02T07:26:16;98865.91;;;24.47;100.00
11327;BME280;5718;42.138;24.762;2023-07-02T07:28:43;98870.66;;;24.94;100.00
11327;BME280;5718;42.138;24.762;2023-07-02T07:31:10;98873.16;;;24.57;100.00
11327;BME280;5718;42.138;24.762;2023-07-02T07:33:36;98865.22;;;24.30;100.00
11327;BME280;5718;42.138;24.762;2023-07-02T07:36:04;98860.16;;;23.86;100.00
11327;BME280;5718;42.138;24.762;2023-07-02T07:38:32;98858.47;;;23.85;100.00
11327;BME280;5718;42.138;24.762;2023-07-02T07:40:59;98861.56;;;24.33;100.00
11327;BME280;5718;42.138;24.762;2023-07-02T07:43:25;98859.63;;;24.35;100.00
11327;BME280;5718;42.138;24.762;2023-07-02T07:45:52;98862.69;;;24.69;100.00
11327;BME280;5718;42.138;24.762;2023-07-02T07:48:20;98858.94;;;24.58;100.00
11327;BME280;5718;42.138;24.762;2023-07-02T07:50:47;98848.56;;;25.19;100.00
11327;BME280;5718;42.138;24.762;2023-07-02T07:53:14;98830.50;;;25.11;100.00
11327;BME280;5718;42.138;24.762;2023-07-02T07:55:42;98843.03;;;25.22;100.00
11327;BME280;5718;42.138;24.762;2023-07-02T07:58:08;98842.75;;;25.76;100.00
11327;BME280;5718;42.138;24.762;2023-07-02T08:00:35;98835.34;;;25.43;100.00
11327;BME280;5718;42.138;24.762;2023-07-02T08:03:02;98839.78;;;25.55;100.00
11327;BME280;5718;42.138;24.762;2023-07-02T08:05:29;98840.59;;;24.93;100.00
11327;BME280;5718;42.138;24.762;2023-07-02T08:07:56;98831.59;;;25.09;100.00
11327;BME280;5718;42.138;24.762;2023-07-02T08:10:23;98826.41;;;25.44;100.00
11327;BME280;5718;42.138;24.762;2023-07-02T08:12:51;98826.03;;;25.98;100.00
11327;BME280;5718;42.138;24.762;2023-07-02T08:15:18;98833.81;;;26.01;100.00
11327;BME280;5718;42.138;24.762;2023-07-02T08:17:45;98834.00;;;25.98;100.00
11327;BME280;5718;42.138;24.762;2023-07-02T08:20:12;98834.38;;;26.17;100.00
11327;BME280;5718;42.138;24.762;2023-07-02T08:22:39;98838.16;;;26.50;100.00
11327;BME280;5718;42.138;24.762;2023-07-02T08:25:07;98837.56;;;26.69;100.00
11327;BME280;5718;42.138;24.762;2023-07-02T08:27:34;98846.22;;;26.83;100.00
11327;BME280;5718;42.138;24.762;2023-07-02T08:30:03;98844.63;;;26.81;100.00
11327;BME280;5718;42.138;24.762;2023-07-02T08:32:30;98837.81;;;27.23;100.00
11327;BME280;5718;42.138;24.762;2023-07-02T08:34:58;98830.44;;;26.80;100.00
11327;BME280;5718;42.138;24.762;2023-07-02T08:37:24;98829.66;;;27.36;100.00
11327;BME280;5718;42.138;24.762;2023-07-02T08:39:51;98837.06;;;28.09;100.00
11327;BME280;5718;42.138;24.762;2023-07-02T08:42:18;98835.19;;;28.21;99.78
11327;BME280;5718;42.138;24.762;2023-07-02T08:44:46;98827.91;;;28.23;98.14
11327;BME280;5718;42.138;24.762;2023-07-02T08:47:15;98827.22;;;28.10;98.76
11327;BME280;5718;42.138;24.762;2023-07-02T08:49:41;98828.47;;;27.18;100.00
11327;BME280;5718;42.138;24.762;2023-07-02T08:52:08;98828.75;;;26.79;100.00
11327;BME280;5718;42.138;24.762;2023-07-02T08:54:35;98825.78;;;27.18;100.00
11327;BME280;5718;42.138;24.762;2023-07-02T08:57:03;98825.28;;;27.35;100.00
11327;BME280;5718;42.138;24.762;2023-07-02T08:59:30;98816.22;;;27.26;100.00
11327;BME280;5718;42.138;24.762;2023-07-02T09:01:57;98828.06;;;27.56;100.00
11327;BME280;5718;42.138;24.762;2023-07-02T09:04:25;98830.63;;;27.57;100.00
11327;BME280;5718;42.138;24.762;2023-07-02T09:07:03;98832.50;;;26.77;100.00
11327;BME280;5718;42.138;24.762;2023-07-02T09:09:30;98830.63;;;26.55;100.00
11327;BME280;5718;42.138;24.762;2023-07-02T09:11:57;98830.03;;;27.31;100.00
11327;BME280;5718;42.138;24.762;2023-07-02T09:14:25;98825.69;;;27.08;100.00
11327;BME280;5718;42.138;24.762;2023-07-02T09:17:05;98827.59;;;27.39;100.00
11327;BME280;5718;42.138;24.762;2023-07-02T09:19:34;98825.19;;;27.25;100.00
11327;BME280;5718;42.138;24.762;2023-07-02T09:22:01;98815.81;;;28.61;100.00
11327;BME280;5718;42.138;24.762;2023-07-02T09:24:29;98810.00;;;28.76;100.00
11327;BME280;5718;42.138;24.762;2023-07-02T09:26:58;98817.56;;;29.13;96.36
11327;BME280;5718;42.138;24.762;2023-07-02T09:29:26;98809.78;;;28.59;96.78
11327;BME280;5718;42.138;24.762;2023-07-02T09:31:55;98817.75;;;27.74;99.91
11327;BME280;5718;42.138;24.762;2023-07-02T09:34:27;98806.19;;;28.16;95.33
11327;BME280;5718;42.138;24.762;2023-07-02T09:36:55;98799.66;;;28.41;95.03
11327;BME280;5718;42.138;24.762;2023-07-02T09:39:26;98803.75;;;28.45;94.57
11327;BME280;5718;42.138;24.762;2023-07-02T09:41:55;98813.38;;;28.48;100.00
11327;BME280;5718;42.138;24.762;2023-07-02T09:44:22;98812.56;;;28.78;93.26
11327;BME280;5718;42.138;24.762;2023-07-02T09:46:58;98805.97;;;29.03;82.27
11327;BME280;5718;42.138;24.762;2023-07-02T09:49:25;98815.94;;;29.01;81.76
11327;BME280;5718;42.138;24.762;2023-07-02T09:51:54;98818.66;;;29.10;87.01
11327;BME280;5718;42.138;24.762;2023-07-02T09:54:21;98814.06;;;28.18;88.99
11327;BME280;5718;42.138;24.762;2023-07-02T09:56:48;98815.50;;;28.33;91.35
11327;BME280;5718;42.138;24.762;2023-07-02T09:59:15;98825.59;;;28.50;87.98
11327;BME280;5718;42.138;24.762;2023-07-02T10:01:41;98819.59;;;28.37;88.23
11327;BME280;5718;42.138;24.762;2023-07-02T10:04:12;98815.25;;;27.93;91.40
11327;BME280;5718;42.138;24.762;2023-07-02T10:06:49;98811.75;;;27.92;93.44
11327;BME280;5718;42.138;24.762;2023-07-02T10:09:18;98816.66;;;27.76;96.60
11327;BME280;5718;42.138;24.762;2023-07-02T10:11:45;98814.84;;;27.54;99.59
11327;BME280;5718;42.138;24.762;2023-07-02T10:14:12;98804.69;;;27.48;100.00
11327;BME280;5718;42.138;24.762;2023-07-02T10:16:49;98808.06;;;27.05;100.00
11327;BME280;5718;42.138;24.762;2023-07-02T10:19:16;98811.84;;;27.14;100.00
11327;BME280;5718;42.138;24.762;2023-07-02T10:21:44;98814.31;;;26.59;100.00
11327;BME280;5718;42.138;24.762;2023-07-02T10:24:13;98816.34;;;26.56;100.00
11327;BME280;5718;42.138;24.762;2023-07-02T10:26:53;98818.59;;;26.38;100.00
11327;BME280;5718;42.138;24.762;2023-07-02T10:29:23;98817.00;;;26.36;100.00
11327;BME280;5718;42.138;24.762;2023-07-02T10:31:50;98818.16;;;26.55;100.00
11327;BME280;5718;42.138;24.762;2023-07-02T10:34:28;98829.25;;;26.14;100.00
11327;BME280;5718;42.138;24.762;2023-07-02T10:36:55;98821.38;;;26.13;100.00
11327;BME280;5718;42.138;24.762;2023-07-02T10:39:22;98812.50;;;26.25;100.00
11327;BME280;5718;42.138;24.762;2023-07-02T10:41:49;98797.38;;;26.37;100.00
11327;BME280;5718;42.138;24.762;2023-07-02T10:44:17;98796.13;;;26.18;100.00
11327;BME280;5718;42.138;24.762;2023-07-02T10:46:44;98806.22;;;25.78;100.00
11327;BME280;5718;42.138;24.762;2023-07-02T10:49:11;98808.94;;;25.53;100.00
11327;BME280;5718;42.138;24.762;2023-07-02T10:51:38;98802.47;;;25.44;100.00
11327;BME280;5718;42.138;24.762;2023-07-02T10:54:05;98810.47;;;25.44;100.00
11327;BME280;5718;42.138;24.762;2023-07-02T10:56:32;98822.72;;;24.96;100.00
11327;BME280;5718;42.138;24.762;2023-07-02T10:58:59;98834.53;;;25.04;100.00
11327;BME280;5718;42.138;24.762;2023-07-02T11:01:28;98837.59;;;24.60;100.00
11327;BME280;5718;42.138;24.762;2023-07-02T11:03:56;98862.50;;;23.35;100.00
11327;BME280;5718;42.138;24.762;2023-07-02T11:06:23;98860.13;;;23.16;100.00
11327;BME280;5718;42.138;24.762;2023-07-02T11:08:50;98856.81;;;22.98;100.00
11327;BME280;5718;42.138;24.762;2023-07-02T11:11:17;98834.25;;;22.63;100.00
11327;BME280;5718;42.138;24.762;2023-07-02T11:13:44;98813.25;;;22.60;100.00
11327;BME280;5718;42.138;24.762;2023-07-02T11:16:20;98831.09;;;22.86;100.00
11327;BME280;5718;42.138;24.762;2023-07-02T11:18:51;98832.41;;;23.36;100.00
11327;BME280;5718;42.138;24.762;2023-07-02T11:21:18;98843.31;;;23.87;100.00
11327;BME280;5718;42.138;24.762;2023-07-02T11:23:45;98833.03;;;23.54;100.00
11327;BME280;5718;42.138;24.762;2023-07-02T11:26:11;98827.59;;;23.84;100.00
11327;BME280;5718;42.138;24.762;2023-07-02T11:28:48;98826.56;;;24.26;100.00
11327;BME280;5718;42.138;24.762;2023-07-02T11:31:24;98831.03;;;24.26;100.00
11327;BME280;5718;42.138;24.762;2023-07-02T11:33:53;98825.38;;;24.30;100.00
11327;BME280;5718;42.138;24.762;2023-07-02T11:36:21;98823.31;;;24.35;100.00
11327;BME280;5718;42.138;24.762;2023-07-02T11:38:50;98817.59;;;24.54;100.00
11327;BME280;5718;42.138;24.762;2023-07-02T11:41:17;98815.53;;;24.32;100.00
11327;BME280;5718;42.138;24.762;2023-07-02T11:43:44;98811.63;;;24.38;100.00
11327;BME280;5718;42.138;24.762;2023-07-02T11:46:11;98809.34;;;24.19;100.00
11327;BME280;5718;42.138;24.762;2023-07-02T11:48:37;98811.16;;;24.19;100.00
11327;BME280;5718;42.138;24.762;2023-07-02T11:51:05;98821.88;;;24.17;100.00
11327;BME280;5718;42.138;24.762;2023-07-02T11:53:32;98829.78;;;24.04;100.00
11327;BME280;5718;42.138;24.762;2023-07-02T11:55:59;98820.38;;;24.13;100.00
11327;BME280;5718;42.138;24.762;2023-07-02T11:58:25;98824.75;;;24.27;100.00
11327;BME280;5718;42.138;24.762;2023-07-02T12:00:52;98825.59;;;23.88;100.00
11327;BME280;5718;42.138;24.762;2023-07-02T12:03:19;98828.22;;;23.32;100.00
11327;BME280;5718;42.138;24.762;2023-07-02T12:05:46;98813.28;;;23.17;100.00
11327;BME280;5718;42.138;24.762;2023-07-02T12:08:14;98798.66;;;23.67;100.00
11327;BME280;5718;42.138;24.762;2023-07-02T12:10:40;98803.59;;;23.44;100.00
11327;BME280;5718;42.138;24.762;2023-07-02T12:13:07;98803.16;;;23.23;100.00
11327;BME280;5718;42.138;24.762;2023-07-02T12:15:34;98807.38;;;23.54;100.00
11327;BME280;5718;42.138;24.762;2023-07-02T12:18:01;98797.38;;;23.99;100.00
11327;BME280;5718;42.138;24.762;2023-07-02T12:20:28;98794.56;;;24.15;100.00
11327;BME280;5718;42.138;24.762;2023-07-02T12:22:54;98788.94;;;24.59;100.00
11327;BME280;5718;42.138;24.762;2023-07-02T12:25:22;98789.47;;;24.77;100.00
11327;BME280;5718;42.138;24.762;2023-07-02T12:27:49;98792.56;;;25.09;100.00
11327;BME280;5718;42.138;24.762;2023-07-02T12:30:16;98788.66;;;25.39;100.00
11327;BME280;5718;42.138;24.762;2023-07-02T12:32:44;98792.38;;;25.97;100.00
11327;BME280;5718;42.138;24.762;2023-07-02T12:35:11;98787.81;;;25.99;100.00
11327;BME280;5718;42.138;24.762;2023-07-02T12:37:43;98787.44;;;25.56;100.00
11327;BME280;5718;42.138;24.762;2023-07-02T12:40:10;98782.88;;;25.08;100.00
11327;BME280;5718;42.138;24.762;2023-07-02T12:42:38;98789.28;;;25.79;100.00
11327;BME280;5718;42.138;24.762;2023-07-02T12:45:06;98781.09;;;25.82;100.00
11327;BME280;5718;42.138;24.762;2023-07-02T12:47:33;98773.00;;;25.84;100.00
11327;BME280;5718;42.138;24.762;2023-07-02T12:50:00;98770.81;;;25.41;100.00
11327;BME280;5718;42.138;24.762;2023-07-02T12:52:28;98775.81;;;25.33;100.00